createdAt,value
2023-02-22T00:01:07.741Z,17.23
2023-02-22T00:03:35.166Z,17.20
2023-02-22T00:06:05.243Z,17.17
2023-02-22T00:08:34.944Z,17.13
2023-02-22T00:11:05.429Z,17.12
2023-02-22T00:13:32.476Z,17.11
2023-02-22T00:16:00.638Z,17.05
2023-02-22T00:18:29.241Z,17.04
2023-02-22T00:21:00.357Z,17.03
2023-02-22T00:23:28.680Z,17.05
2023-02-22T00:25:56.929Z,17.02
2023-02-22T00:28:26.797Z,16.98
2023-02-22T00:30:55.311Z,16.96
2023-02-22T00:33:22.796Z,16.93
2023-02-22T00:35:49.777Z,16.94
2023-02-22T00:38:18.734Z,16.92
2023-02-22T00:40:45.776Z,16.92
2023-02-22T00:43:12.930Z,16.89
2023-02-22T00:45:39.879Z,16.87
2023-02-22T00:48:07.258Z,16.86
2023-02-22T00:50:34.719Z,16.85
2023-02-22T00:53:07.557Z,16.83
2023-02-22T00:55:36.952Z,16.80
2023-02-22T00:58:05.034Z,16.78
2023-02-22T01:00:38.339Z,16.76
2023-02-22T01:03:07.531Z,16.75
2023-02-22T01:05:34.832Z,16.74
2023-02-22T01:08:02.992Z,16.72
2023-02-22T01:10:31.603Z,16.71
2023-02-22T01:13:00.366Z,16.70
2023-02-22T01:15:31.136Z,16.70
2023-02-22T01:17:59.943Z,16.69
2023-02-22T01:20:29.373Z,16.68
2023-02-22T01:22:58.463Z,16.65
2023-02-22T01:25:28.751Z,16.68
2023-02-22T01:27:56.996Z,16.67
2023-02-22T01:30:28.620Z,16.66
2023-02-22T01:32:56.473Z,16.66
2023-02-22T01:35:28.158Z,16.66
2023-02-22T01:37:56.072Z,16.64
2023-02-22T01:40:29.918Z,16.63
2023-02-22T01:43:00.275Z,16.62
2023-02-22T01:45:30.472Z,16.64
2023-02-22T01:48:02.211Z,16.64
2023-02-22T01:50:32.569Z,16.62
2023-02-22T01:53:00.211Z,16.63
2023-02-22T01:55:28.335Z,16.62
2023-02-22T01:57:55.503Z,16.61
2023-02-22T02:00:24.592Z,16.62
2023-02-22T02:02:59.545Z,16.62
2023-02-22T02:05:32.055Z,16.60
2023-02-22T02:08:03.879Z,16.61
2023-02-22T02:10:32.390Z,16.61
2023-02-22T02:12:59.450Z,16.61
2023-02-22T02:15:32.469Z,16.61
2023-02-22T02:18:03.268Z,16.58
2023-02-22T02:20:40.428Z,16.58
2023-02-22T02:23:31.456Z,16.59
2023-02-22T02:26:35.302Z,16.61
2023-02-22T02:29:20.253Z,16.61
2023-02-22T02:32:04.275Z,16.60
2023-02-22T02:34:55.701Z,16.59
2023-02-22T02:37:31.607Z,16.64
2023-02-22T02:40:18.124Z,16.62
2023-02-22T02:42:55.570Z,16.59
2023-02-22T02:45:29.849Z,16.60
2023-02-22T02:47:59.609Z,16.58
2023-02-22T02:50:33.582Z,16.61
2023-02-22T02:53:04.972Z,16.60
2023-02-22T02:55:33.191Z,16.61
2023-02-22T02:58:00.500Z,16.58
2023-02-22T03:00:31.580Z,16.58
2023-02-22T03:03:05.711Z,16.62
2023-02-22T03:05:41.474Z,16.60
2023-02-22T03:08:18.579Z,16.61
2023-02-22T03:11:23.832Z,16.60
2023-02-22T03:14:33.658Z,16.62
2023-02-22T03:17:30.650Z,16.63
2023-02-22T03:20:05.265Z,16.62
2023-02-22T03:22:44.413Z,16.62
2023-02-22T03:25:17.944Z,16.61
2023-02-22T03:27:50.451Z,16.62
2023-02-22T03:30:37.972Z,16.62
2023-02-22T03:33:16.136Z,16.64
2023-02-22T03:35:57.089Z,16.65
2023-02-22T03:38:29.147Z,16.63
2023-02-22T03:41:01.220Z,16.65
2023-02-22T03:43:54.903Z,16.67
2023-02-22T03:46:23.158Z,16.69
2023-02-22T03:49:05.740Z,16.68
2023-02-22T03:51:33.043Z,16.65
2023-02-22T03:54:00.014Z,16.65
2023-02-22T03:56:36.084Z,16.67
2023-02-22T03:59:07.208Z,16.67
2023-02-22T04:01:34.781Z,16.75
2023-02-22T04:04:01.789Z,16.71
2023-02-22T04:06:29.788Z,16.74
2023-02-22T04:08:56.836Z,16.72
2023-02-22T04:11:23.828Z,16.77
2023-02-22T04:13:50.905Z,16.73
2023-02-22T04:16:17.757Z,16.74
2023-02-22T04:18:44.595Z,16.72
2023-02-22T04:21:11.470Z,16.72
2023-02-22T04:23:38.470Z,16.72
2023-02-22T04:26:05.454Z,16.71
2023-02-22T04:28:32.367Z,16.72
2023-02-22T04:30:59.218Z,16.70
2023-02-22T04:33:26.268Z,16.68
2023-02-22T04:35:53.136Z,16.75
2023-02-22T04:38:20.330Z,16.75
2023-02-22T04:40:47.325Z,16.77
2023-02-22T04:43:14.122Z,16.76
2023-02-22T04:45:41.002Z,16.73
2023-02-22T04:48:07.850Z,16.72
2023-02-22T04:50:34.805Z,16.72
2023-02-22T04:53:01.647Z,16.72
2023-02-22T04:55:28.542Z,16.70
2023-02-22T04:57:56.911Z,16.67
2023-02-22T05:00:24.256Z,16.64
2023-02-22T05:02:51.754Z,16.68
2023-02-22T05:05:21.569Z,16.67
2023-02-22T05:07:49.803Z,16.64
2023-02-22T05:10:17.078Z,16.67
2023-02-22T05:12:44.146Z,16.66
2023-02-22T05:15:11.597Z,16.64
2023-02-22T05:17:38.430Z,16.66
2023-02-22T05:20:05.683Z,16.67
2023-02-22T05:22:32.638Z,16.66
2023-02-22T05:24:59.510Z,16.66
2023-02-22T05:27:26.378Z,16.80
2023-02-22T05:29:53.183Z,16.88
2023-02-22T05:32:19.985Z,16.94
2023-02-22T05:34:46.869Z,16.98
2023-02-22T05:37:13.661Z,17.01
2023-02-22T05:39:40.521Z,16.81
2023-02-22T05:42:07.438Z,16.37
2023-02-22T05:44:34.249Z,16.19
2023-02-22T05:47:01.070Z,16.03
2023-02-22T05:49:28.032Z,15.93
2023-02-22T05:51:59.460Z,15.93
2023-02-22T05:54:26.494Z,15.85
2023-02-22T05:56:53.417Z,15.76
2023-02-22T05:59:21.044Z,15.65
2023-02-22T06:01:47.950Z,15.77
2023-02-22T06:04:14.868Z,15.95
2023-02-22T06:06:41.808Z,16.13
2023-02-22T06:09:08.686Z,16.24
2023-02-22T06:11:35.596Z,16.34
2023-02-22T06:14:02.423Z,16.40
2023-02-22T06:16:29.318Z,16.46
2023-02-22T06:18:56.239Z,16.50
2023-02-22T06:21:23.070Z,16.59
2023-02-22T06:23:49.948Z,16.65
2023-02-22T06:26:18.289Z,16.71
2023-02-22T06:28:46.441Z,16.73
2023-02-22T06:31:13.372Z,16.75
2023-02-22T06:33:40.332Z,16.75
2023-02-22T06:36:07.993Z,16.80
2023-02-22T06:38:34.909Z,16.88
2023-02-22T06:41:03.176Z,16.89
2023-02-22T06:43:30.098Z,16.89
2023-02-22T06:45:57.111Z,16.89
2023-02-22T06:48:23.991Z,16.92
2023-02-22T06:50:50.961Z,16.91
2023-02-22T06:53:17.859Z,16.90
2023-02-22T06:55:44.931Z,16.92
2023-02-22T06:58:11.931Z,16.94
2023-02-22T07:00:38.967Z,16.93
2023-02-22T07:03:05.994Z,16.95
2023-02-22T07:05:32.940Z,16.96
2023-02-22T07:08:07.035Z,16.86
2023-02-22T07:10:36.063Z,16.64
2023-02-22T07:13:03.753Z,16.50
2023-02-22T07:15:32.998Z,16.39
2023-02-22T07:18:00.426Z,16.35
2023-02-22T07:20:30.138Z,16.38
2023-02-22T07:22:57.108Z,16.31
2023-02-22T07:25:24.537Z,16.30
2023-02-22T07:27:53.247Z,16.23
2023-02-22T07:30:34.573Z,16.20
2023-02-22T07:33:04.319Z,16.17
2023-02-22T07:35:33.892Z,16.11
2023-02-22T07:38:00.978Z,16.09
2023-02-22T07:40:28.858Z,16.09
2023-02-22T07:43:01.209Z,16.07
2023-02-22T07:45:31.443Z,16.05
2023-02-22T07:47:59.702Z,16.02
2023-02-22T07:50:30.472Z,16.02
2023-02-22T07:52:59.965Z,15.98
2023-02-22T07:55:29.195Z,16.00
2023-02-22T07:57:59.752Z,15.95
2023-02-22T08:00:29.511Z,15.96
2023-02-22T08:02:56.692Z,15.95
2023-02-22T08:05:26.469Z,15.93
2023-02-22T08:07:53.687Z,15.93
2023-02-22T08:10:22.679Z,15.91
2023-02-22T08:12:50.629Z,15.91
2023-02-22T08:15:21.188Z,15.88
2023-02-22T08:17:48.140Z,15.85
2023-02-22T08:20:15.207Z,15.86
2023-02-22T08:22:45.264Z,15.86
2023-02-22T08:25:13.572Z,15.86
2023-02-22T08:27:40.502Z,15.86
2023-02-22T08:30:08.647Z,15.83
2023-02-22T08:32:39.122Z,15.86
2023-02-22T08:35:06.889Z,15.85
2023-02-22T08:37:34.055Z,15.85
2023-02-22T08:40:01.125Z,15.83
2023-02-22T08:42:28.123Z,15.86
2023-02-22T08:44:55.133Z,15.85
2023-02-22T08:47:22.506Z,15.86
2023-02-22T08:49:49.611Z,15.84
2023-02-22T08:52:16.578Z,15.86
2023-02-22T08:54:45.822Z,15.81
2023-02-22T08:57:13.227Z,15.83
2023-02-22T08:59:40.214Z,15.84
2023-02-22T09:02:16.005Z,15.85
2023-02-22T09:04:43.429Z,15.80
2023-02-22T09:07:13.570Z,15.86
2023-02-22T09:09:43.343Z,15.82
2023-02-22T09:12:10.797Z,15.84
2023-02-22T09:14:38.161Z,15.81
2023-02-22T09:17:05.942Z,15.84
2023-02-22T09:19:33.177Z,15.85
2023-02-22T09:22:00.384Z,15.87
2023-02-22T09:24:27.981Z,15.84
2023-02-22T09:26:55.073Z,15.85
2023-02-22T09:29:23.669Z,15.84
2023-02-22T09:31:52.789Z,15.85
2023-02-22T09:34:22.894Z,15.86
2023-02-22T09:36:50.561Z,15.84
2023-02-22T09:39:18.496Z,15.84
2023-02-22T09:42:09.993Z,15.81
2023-02-22T09:44:54.241Z,15.84
2023-02-22T09:47:34.376Z,15.85
2023-02-22T09:50:15.967Z,15.81
2023-02-22T09:52:54.465Z,15.84
2023-02-22T09:55:29.354Z,15.84
2023-02-22T09:58:01.968Z,15.83
2023-02-22T10:00:34.269Z,15.83
2023-02-22T10:03:01.443Z,15.82
2023-02-22T10:05:34.649Z,15.83
2023-02-22T10:08:06.329Z,15.80
2023-02-22T10:10:39.764Z,15.82
2023-02-22T10:13:30.079Z,15.83
2023-02-22T10:16:11.097Z,15.82
2023-02-22T10:18:55.420Z,15.80
2023-02-22T10:22:00.109Z,15.84
2023-02-22T10:24:34.131Z,15.83
2023-02-22T10:27:01.854Z,15.83
2023-02-22T10:29:36.549Z,15.83
2023-02-22T10:32:05.365Z,15.81
2023-02-22T10:34:54.595Z,15.83
2023-02-22T10:37:32.963Z,15.83
2023-02-22T10:40:17.527Z,15.82
2023-02-22T10:42:45.504Z,15.83
2023-02-22T10:45:24.067Z,15.82
2023-02-22T10:47:56.308Z,15.81
2023-02-22T10:50:23.565Z,15.82
2023-02-22T10:52:50.476Z,15.80
2023-02-22T10:55:17.658Z,15.82
2023-02-22T10:57:48.386Z,15.82
2023-02-22T11:00:26.541Z,15.84
2023-02-22T11:02:57.452Z,15.83
2023-02-22T11:05:39.059Z,15.80
2023-02-22T11:08:21.308Z,15.82
2023-02-22T11:11:01.230Z,15.83
2023-02-22T11:13:29.874Z,15.81
2023-02-22T11:16:19.949Z,15.82
2023-02-22T11:18:49.081Z,15.83
2023-02-22T11:21:23.471Z,15.83
2023-02-22T11:24:01.148Z,15.83
2023-02-22T11:26:29.012Z,15.82
2023-02-22T11:28:57.238Z,15.82
2023-02-22T11:31:28.000Z,15.80
2023-02-22T11:33:59.156Z,15.84
2023-02-22T11:36:41.221Z,15.85
2023-02-22T11:39:29.416Z,15.82
2023-02-22T11:41:57.059Z,15.81
2023-02-22T11:44:25.660Z,15.83
2023-02-22T11:46:56.142Z,15.88
2023-02-22T11:49:35.542Z,15.93
2023-02-22T11:52:20.642Z,15.95
2023-02-22T11:54:59.865Z,15.95
2023-02-22T11:57:52.450Z,15.95
2023-02-22T12:00:30.067Z,15.93
2023-02-22T12:03:18.960Z,15.94
2023-02-22T12:06:25.206Z,15.92
2023-02-22T12:08:55.783Z,15.93
2023-02-22T12:11:52.195Z,15.91
2023-02-22T12:14:40.455Z,15.90
2023-02-22T12:17:48.153Z,15.91
2023-02-22T12:20:27.420Z,15.95
2023-02-22T12:23:15.461Z,15.97
2023-02-22T12:25:58.792Z,16.00
2023-02-22T12:28:33.983Z,16.00
2023-02-22T12:31:21.442Z,16.03
2023-02-22T12:34:27.586Z,16.04
2023-02-22T12:37:03.929Z,16.04
2023-02-22T12:39:34.341Z,16.03
2023-02-22T12:42:16.751Z,16.01
2023-02-22T12:44:49.082Z,16.04
2023-02-22T12:47:23.099Z,16.11
2023-02-22T12:50:00.787Z,16.11
2023-02-22T12:52:44.556Z,16.11
2023-02-22T12:56:04.005Z,16.16
2023-02-22T12:58:39.948Z,16.13
2023-02-22T13:01:24.701Z,16.06
2023-02-22T13:03:56.284Z,16.08
2023-02-22T13:06:32.453Z,16.09
2023-02-22T13:09:14.890Z,16.07
2023-02-22T13:11:57.305Z,16.05
2023-02-22T13:14:50.585Z,16.04
2023-02-22T13:17:52.738Z,16.01
2023-02-22T13:20:42.160Z,15.96
2023-02-22T13:23:32.512Z,15.97
2023-02-22T13:26:11.743Z,15.96
2023-02-22T13:28:50.682Z,15.94
2023-02-22T13:31:45.414Z,15.90
2023-02-22T13:34:31.073Z,15.86
2023-02-22T13:37:00.694Z,15.85
2023-02-22T13:40:17.121Z,15.84
2023-02-22T13:43:08.299Z,15.80
2023-02-22T13:45:41.217Z,15.74
2023-02-22T13:48:10.951Z,15.74
2023-02-22T13:51:08.174Z,15.73
2023-02-22T13:54:24.763Z,15.74
2023-02-22T13:56:54.458Z,15.70
2023-02-22T13:59:28.604Z,15.71
2023-02-22T14:01:56.782Z,15.75
2023-02-22T14:04:29.371Z,15.81
2023-02-22T14:07:22.710Z,15.81
2023-02-22T14:09:53.666Z,15.76
2023-02-22T14:12:30.241Z,15.74
2023-02-22T14:15:29.765Z,15.74
2023-02-22T14:17:57.585Z,15.76
2023-02-22T14:20:31.341Z,15.72
2023-02-22T14:23:24.433Z,15.69
2023-02-22T14:25:52.135Z,15.68
2023-02-22T14:28:57.924Z,15.72
2023-02-22T14:31:36.498Z,15.67
2023-02-22T14:34:10.621Z,15.68
2023-02-22T14:37:05.538Z,15.63
2023-02-22T14:39:46.868Z,15.65
2023-02-22T14:42:20.257Z,15.74
2023-02-22T14:45:03.038Z,15.77
2023-02-22T14:47:44.093Z,15.82
2023-02-22T14:50:23.603Z,15.87
2023-02-22T14:53:24.584Z,15.89
2023-02-22T14:55:58.933Z,15.86
2023-02-22T14:58:42.145Z,15.82
2023-02-22T15:01:49.160Z,15.75
2023-02-22T15:04:25.910Z,15.84
2023-02-22T15:06:55.027Z,15.86
2023-02-22T15:09:30.143Z,15.86
2023-02-22T15:12:04.300Z,15.87
2023-02-22T15:14:39.384Z,15.90
2023-02-22T15:17:24.852Z,15.92
2023-02-22T15:19:52.805Z,15.92
2023-02-22T15:22:23.030Z,15.88
2023-02-22T15:25:02.569Z,15.88
2023-02-22T15:27:29.920Z,15.86
2023-02-22T15:30:00.673Z,15.69
2023-02-22T15:32:34.547Z,15.57
2023-02-22T15:35:18.539Z,15.45
2023-02-22T15:37:47.785Z,15.31
2023-02-22T15:40:21.139Z,15.19
2023-02-22T15:43:02.607Z,15.24
2023-02-22T15:45:33.363Z,15.35
2023-02-22T15:48:00.469Z,15.36
2023-02-22T15:50:30.276Z,15.43
2023-02-22T15:53:18.550Z,15.44
2023-02-22T15:55:47.717Z,15.42
2023-02-22T15:58:29.129Z,15.43
2023-02-22T16:01:16.262Z,15.42
2023-02-22T16:03:47.961Z,15.42
2023-02-22T16:06:21.273Z,15.37
2023-02-22T16:08:55.539Z,15.37
2023-02-22T16:11:34.892Z,15.39
2023-02-22T16:14:07.948Z,15.39
2023-02-22T16:16:37.506Z,15.39
2023-02-22T16:19:22.721Z,15.34
2023-02-22T16:22:00.197Z,15.31
2023-02-22T16:24:29.918Z,15.32
2023-02-22T16:27:07.455Z,15.31
2023-02-22T16:29:34.573Z,15.29
2023-02-22T16:32:02.288Z,15.29
2023-02-22T16:34:29.662Z,15.25
2023-02-22T16:36:58.343Z,15.28
2023-02-22T16:39:31.646Z,15.27
2023-02-22T16:42:03.531Z,15.27
2023-02-22T16:44:30.726Z,15.26
2023-02-22T16:47:00.576Z,15.26
2023-02-22T16:49:28.816Z,15.26
2023-02-22T16:52:07.136Z,15.26
2023-02-22T16:54:40.212Z,15.26
2023-02-22T16:57:07.817Z,15.22
2023-02-22T16:59:40.305Z,15.22
2023-02-22T17:02:13.778Z,15.26
2023-02-22T17:04:40.710Z,15.28
2023-02-22T17:07:09.797Z,15.27
2023-02-22T17:09:37.055Z,15.28
2023-02-22T17:12:04.190Z,15.28
2023-02-22T17:14:34.975Z,15.30
2023-02-22T17:17:02.307Z,15.28
2023-02-22T17:19:29.453Z,15.28
2023-02-22T17:21:56.546Z,15.25
2023-02-22T17:24:29.580Z,15.18
2023-02-22T17:26:57.751Z,15.20
2023-02-22T17:29:24.731Z,15.17
2023-02-22T17:31:53.201Z,15.07
2023-02-22T17:34:20.406Z,15.11
2023-02-22T17:36:47.413Z,15.15
2023-02-22T17:39:14.400Z,15.17
2023-02-22T17:41:41.298Z,15.19
2023-02-22T17:44:08.496Z,15.19
2023-02-22T17:46:37.290Z,15.21
2023-02-22T17:49:04.483Z,15.17
2023-02-22T17:51:32.114Z,15.16
2023-02-22T17:53:59.132Z,15.16
2023-02-22T17:56:26.154Z,15.21
2023-02-22T17:58:55.202Z,15.17
2023-02-22T18:01:30.763Z,15.20
2023-02-22T18:04:00.502Z,15.21
2023-02-22T18:06:30.371Z,15.22
2023-02-22T18:08:59.362Z,15.26
2023-02-22T18:11:28.711Z,15.26
2023-02-22T18:13:57.952Z,15.29
2023-02-22T18:16:26.366Z,15.41
2023-02-22T18:18:54.938Z,15.37
2023-02-22T18:21:22.805Z,15.41
2023-02-22T18:23:50.216Z,15.47
2023-02-22T18:26:20.185Z,15.50
2023-02-22T18:28:50.318Z,15.50
2023-02-22T18:31:21.800Z,15.54
2023-02-22T18:33:51.800Z,15.57
2023-02-22T18:36:24.222Z,15.67
2023-02-22T18:38:55.416Z,15.77
2023-02-22T18:41:26.919Z,15.84
2023-02-22T18:43:55.744Z,15.92
2023-02-22T18:46:24.319Z,16.00
2023-02-22T18:48:54.719Z,16.06
2023-02-22T18:51:22.287Z,16.10
2023-02-22T18:53:50.443Z,16.22
2023-02-22T18:56:22.565Z,16.18
2023-02-22T18:59:12.598Z,16.23
2023-02-22T19:01:41.488Z,16.25
2023-02-22T19:04:15.029Z,16.31
2023-02-22T19:06:45.113Z,16.34
2023-02-22T19:09:12.139Z,16.39
2023-02-22T19:11:45.016Z,16.45
2023-02-22T19:14:12.099Z,16.51
2023-02-22T19:16:39.926Z,16.55
2023-02-22T19:19:07.143Z,16.60
2023-02-22T19:21:34.213Z,16.66
2023-02-22T19:24:01.780Z,16.73
2023-02-22T19:26:29.808Z,16.79
2023-02-22T19:28:59.426Z,16.94
2023-02-22T19:31:34.150Z,16.98
2023-02-22T19:34:02.659Z,17.09
2023-02-22T19:36:29.899Z,17.11
2023-02-22T19:39:02.572Z,17.17
2023-02-22T19:41:34.016Z,17.20
2023-02-22T19:44:03.289Z,17.22
2023-02-22T19:46:30.722Z,17.27
2023-02-22T19:48:58.463Z,17.31
2023-02-22T19:51:29.385Z,17.33
2023-02-22T19:54:03.450Z,17.22
2023-02-22T19:56:31.740Z,17.20
2023-02-22T19:59:02.654Z,17.16
2023-02-22T20:01:33.585Z,17.20
2023-02-22T20:04:09.615Z,17.18
2023-02-22T20:06:43.402Z,17.20
2023-02-22T20:09:18.299Z,17.26
2023-02-22T20:11:48.264Z,17.26
2023-02-22T20:14:24.576Z,17.29
2023-02-22T20:17:01.264Z,17.31
2023-02-22T20:19:30.495Z,17.33
2023-02-22T20:21:59.070Z,17.34
2023-02-22T20:24:28.074Z,17.38
2023-02-22T20:26:58.697Z,17.46
2023-02-22T20:29:32.766Z,17.45
2023-02-22T20:32:02.327Z,17.48
2023-02-22T20:34:34.022Z,17.50
2023-02-22T20:37:01.800Z,17.51
2023-02-22T20:39:29.523Z,17.55
2023-02-22T20:41:57.140Z,17.56
2023-02-22T20:44:24.995Z,17.61
2023-02-22T20:46:53.951Z,17.60
2023-02-22T20:49:21.853Z,17.62
2023-02-22T20:51:49.895Z,17.62
2023-02-22T20:54:17.293Z,17.64
2023-02-22T20:56:48.220Z,17.64
2023-02-22T20:59:18.307Z,17.68
2023-02-22T21:01:47.916Z,17.66
2023-02-22T21:04:15.373Z,17.63
2023-02-22T21:06:43.580Z,17.64
2023-02-22T21:09:16.964Z,17.65
2023-02-22T21:11:46.036Z,17.65
2023-02-22T21:14:19.004Z,17.62
2023-02-22T21:16:51.488Z,17.61
2023-02-22T21:19:30.477Z,17.60
2023-02-22T21:22:01.876Z,17.61
2023-02-22T21:24:29.979Z,17.59
2023-02-22T21:27:00.475Z,17.63
2023-02-22T21:29:29.502Z,17.61
2023-02-22T21:31:57.066Z,17.65
2023-02-22T21:34:26.382Z,17.66
2023-02-22T21:36:54.533Z,17.64
2023-02-22T21:39:28.979Z,17.63
2023-02-22T21:42:02.357Z,17.68
2023-02-22T21:44:30.124Z,17.68
2023-02-22T21:46:57.881Z,17.72
2023-02-22T21:49:25.489Z,17.69
2023-02-22T21:51:55.283Z,17.63
2023-02-22T21:54:25.726Z,17.62
2023-02-22T21:56:54.970Z,17.60
2023-02-22T21:59:25.215Z,17.59
2023-02-22T22:01:58.555Z,17.58
2023-02-22T22:04:31.859Z,17.53
2023-02-22T22:07:01.739Z,17.51
2023-02-22T22:09:37.659Z,17.50
2023-02-22T22:12:17.448Z,17.52
2023-02-22T22:14:45.234Z,17.30
2023-02-22T22:17:14.313Z,17.09
2023-02-22T22:19:42.386Z,16.97
2023-02-22T22:22:10.378Z,16.81
2023-02-22T22:24:38.105Z,16.73
2023-02-22T22:27:07.139Z,16.66
2023-02-22T22:29:34.854Z,16.58
2023-02-22T22:32:03.376Z,16.49
2023-02-22T22:34:34.676Z,16.45
2023-02-22T22:37:01.788Z,16.40
2023-02-22T22:39:29.767Z,16.33
2023-02-22T22:41:57.447Z,16.26
2023-02-22T22:44:25.136Z,16.22
2023-02-22T22:46:55.956Z,16.17
2023-02-22T22:49:25.619Z,16.13
2023-02-22T22:51:54.397Z,16.09
2023-02-22T22:54:21.426Z,16.03
2023-02-22T22:56:48.440Z,15.99
2023-02-22T22:59:15.642Z,15.96
2023-02-22T23:01:47.025Z,15.89
2023-02-22T23:04:17.007Z,15.84
2023-02-22T23:06:46.743Z,15.81
2023-02-22T23:09:18.955Z,15.75
2023-02-22T23:11:51.165Z,15.74
2023-02-22T23:14:24.820Z,15.71
2023-02-22T23:16:56.746Z,15.68
2023-02-22T23:19:23.789Z,15.62
2023-02-22T23:21:50.806Z,15.62
2023-02-22T23:24:21.055Z,15.58
2023-02-22T23:26:51.149Z,15.55
2023-02-22T23:29:20.526Z,15.53
2023-02-22T23:31:48.957Z,15.49
2023-02-22T23:34:18.312Z,15.46
2023-02-22T23:36:48.062Z,15.40
2023-02-22T23:39:18.538Z,15.39
2023-02-22T23:41:45.601Z,15.37
2023-02-22T23:44:17.862Z,15.34
2023-02-22T23:46:55.870Z,15.29
2023-02-22T23:49:27.864Z,15.27
2023-02-22T23:51:55.164Z,15.23
2023-02-22T23:54:24.807Z,15.21
2023-02-22T23:56:58.299Z,15.17
2023-02-22T23:59:26.861Z,15.15
